sensor_id;sensor_type;location;lat;lon;timestamp;temperature;humidity
6293;DHT22;3179;54.350;10.102;2022-10-16T00:00:45;15.70;99.90
6293;DHT22;3179;54.350;10.102;2022-10-16T00:03:12;15.70;99.90
6293;DHT22;3179;54.350;10.102;2022-10-16T00:05:40;15.70;99.90
6293;DHT22;3179;54.350;10.102;2022-10-16T00:08:07;15.70;99.90
6293;DHT22;3179;54.350;10.102;2022-10-16T00:10:34;15.70;99.90
6293;DHT22;3179;54.350;10.102;2022-10-16T00:13:01;15.70;99.90
6293;DHT22;3179;54.350;10.102;2022-10-16T00:15:29;15.70;99.90
6293;DHT22;3179;54.350;10.102;2022-10-16T00:17:56;15.60;99.90
6293;DHT22;3179;54.350;10.102;2022-10-16T00:20:23;15.60;99.90
6293;DHT22;3179;54.350;10.102;2022-10-16T00:22:50;15.60;99.90
6293;DHT22;3179;54.350;10.102;2022-10-16T00:25:16;15.60;99.90
6293;DHT22;3179;54.350;10.102;2022-10-16T00:27:43;15.60;99.90
6293;DHT22;3179;54.350;10.102;2022-10-16T00:30:10;15.60;99.90
6293;DHT22;3179;54.350;10.102;2022-10-16T00:32:38;15.60;99.90
6293;DHT22;3179;54.350;10.102;2022-10-16T00:35:05;15.60;99.90
6293;DHT22;3179;54.350;10.102;2022-10-16T00:37:32;15.60;99.90
6293;DHT22;3179;54.350;10.102;2022-10-16T00:39:59;15.60;99.90
6293;DHT22;3179;54.350;10.102;2022-10-16T00:42:26;15.50;99.90
6293;DHT22;3179;54.350;10.102;2022-10-16T00:44:55;15.50;99.90
6293;DHT22;3179;54.350;10.102;2022-10-16T00:47:24;15.50;99.90
6293;DHT22;3179;54.350;10.102;2022-10-16T00:49:59;15.50;99.90
6293;DHT22;3179;54.350;10.102;2022-10-16T00:52:26;15.50;99.90
6293;DHT22;3179;54.350;10.102;2022-10-16T00:54:54;15.50;99.90
6293;DHT22;3179;54.350;10.102;2022-10-16T00:57:21;15.50;99.90
6293;DHT22;3179;54.350;10.102;2022-10-16T00:59:48;15.50;99.90
6293;DHT22;3179;54.350;10.102;2022-10-16T01:02:16;15.50;99.90
6293;DHT22;3179;54.350;10.102;2022-10-16T01:04:46;15.40;99.90
6293;DHT22;3179;54.350;10.102;2022-10-16T01:07:20;15.40;99.90
6293;DHT22;3179;54.350;10.102;2022-10-16T01:10:06;15.40;99.90
6293;DHT22;3179;54.350;10.102;2022-10-16T01:12:40;15.40;99.90
6293;DHT22;3179;54.350;10.102;2022-10-16T01:15:11;15.40;99.90
6293;DHT22;3179;54.350;10.102;2022-10-16T01:17:44;15.40;99.90
6293;DHT22;3179;54.350;10.102;2022-10-16T01:20:18;15.40;99.90
6293;DHT22;3179;54.350;10.102;2022-10-16T01:22:59;15.40;99.90
6293;DHT22;3179;54.350;10.102;2022-10-16T01:28:36;15.40;99.90
6293;DHT22;3179;54.350;10.102;2022-10-16T01:31:06;15.30;99.90
6293;DHT22;3179;54.350;10.102;2022-10-16T01:33:37;15.30;99.90
6293;DHT22;3179;54.350;10.102;2022-10-16T01:36:09;15.30;99.90
6293;DHT22;3179;54.350;10.102;2022-10-16T01:38:38;15.30;99.90
6293;DHT22;3179;54.350;10.102;2022-10-16T01:41:09;15.30;99.90
6293;DHT22;3179;54.350;10.102;2022-10-16T01:43:41;15.30;99.90
6293;DHT22;3179;54.350;10.102;2022-10-16T01:46:10;15.30;99.90
6293;DHT22;3179;54.350;10.102;2022-10-16T01:48:39;15.30;99.90
6293;DHT22;3179;54.350;10.102;2022-10-16T01:51:10;15.30;99.90
6293;DHT22;3179;54.350;10.102;2022-10-16T01:53:38;15.30;99.90
6293;DHT22;3179;54.350;10.102;2022-10-16T01:56:08;15.30;99.90
6293;DHT22;3179;54.350;10.102;2022-10-16T01:58:40;15.30;99.90
6293;DHT22;3179;54.350;10.102;2022-10-16T02:01:10;15.30;99.90
6293;DHT22;3179;54.350;10.102;2022-10-16T02:03:39;15.30;99.90
6293;DHT22;3179;54.350;10.102;2022-10-16T02:06:08;15.30;99.90
6293;DHT22;3179;54.350;10.102;2022-10-16T02:08:35;15.30;99.90
6293;DHT22;3179;54.350;10.102;2022-10-16T02:11:02;15.30;99.90
6293;DHT22;3179;54.350;10.102;2022-10-16T02:13:33;15.30;99.90
6293;DHT22;3179;54.350;10.102;2022-10-16T02:16:04;15.30;99.90
6293;DHT22;3179;54.350;10.102;2022-10-16T02:18:31;15.30;99.90
6293;DHT22;3179;54.350;10.102;2022-10-16T02:21:02;15.30;99.90
6293;DHT22;3179;54.350;10.102;2022-10-16T02:23:37;15.30;99.90
6293;DHT22;3179;54.350;10.102;2022-10-16T02:26:12;15.30;99.90
6293;DHT22;3179;54.350;10.102;2022-10-16T02:28:43;15.30;99.90
6293;DHT22;3179;54.350;10.102;2022-10-16T02:31:15;15.30;99.90
6293;DHT22;3179;54.350;10.102;2022-10-16T02:33:45;15.30;99.90
6293;DHT22;3179;54.350;10.102;2022-10-16T02:36:12;15.30;99.90
6293;DHT22;3179;54.350;10.102;2022-10-16T02:38:40;15.30;99.90
6293;DHT22;3179;54.350;10.102;2022-10-16T02:41:07;15.20;99.90
6293;DHT22;3179;54.350;10.102;2022-10-16T02:43:34;15.30;99.90
6293;DHT22;3179;54.350;10.102;2022-10-16T02:46:01;15.20;99.90
6293;DHT22;3179;54.350;10.102;2022-10-16T02:48:29;15.20;99.90
6293;DHT22;3179;54.350;10.102;2022-10-16T02:50:56;15.20;99.90
6293;DHT22;3179;54.350;10.102;2022-10-16T02:53:23;15.20;99.90
6293;DHT22;3179;54.350;10.102;2022-10-16T02:55:49;15.20;99.90
6293;DHT22;3179;54.350;10.102;2022-10-16T02:58:16;15.20;99.90
6293;DHT22;3179;54.350;10.102;2022-10-16T03:00:43;15.20;99.90
6293;DHT22;3179;54.350;10.102;2022-10-16T03:03:10;15.20;99.90
6293;DHT22;3179;54.350;10.102;2022-10-16T03:05:38;15.20;99.90
6293;DHT22;3179;54.350;10.102;2022-10-16T03:08:04;15.20;99.90
6293;DHT22;3179;54.350;10.102;2022-10-16T03:10:31;15.20;99.90
6293;DHT22;3179;54.350;10.102;2022-10-16T03:12:58;15.20;99.90
6293;DHT22;3179;54.350;10.102;2022-10-16T03:15:25;15.20;99.90
6293;DHT22;3179;54.350;10.102;2022-10-16T03:17:53;15.10;99.90
6293;DHT22;3179;54.350;10.102;2022-10-16T03:20:20;15.20;99.90
6293;DHT22;3179;54.350;10.102;2022-10-16T03:22:48;15.10;99.90
6293;DHT22;3179;54.350;10.102;2022-10-16T03:25:15;15.10;99.90
6293;DHT22;3179;54.350;10.102;2022-10-16T03:27:41;15.10;99.90
6293;DHT22;3179;54.350;10.102;2022-10-16T03:30:09;15.10;99.90
6293;DHT22;3179;54.350;10.102;2022-10-16T03:32:36;15.10;99.90
6293;DHT22;3179;54.350;10.102;2022-10-16T03:35:03;15.10;99.90
6293;DHT22;3179;54.350;10.102;2022-10-16T03:37:30;15.10;99.90
6293;DHT22;3179;54.350;10.102;2022-10-16T03:39:58;15.10;99.90
6293;DHT22;3179;54.350;10.102;2022-10-16T03:42:25;15.10;99.90
6293;DHT22;3179;54.350;10.102;2022-10-16T03:44:52;15.00;99.90
6293;DHT22;3179;54.350;10.102;2022-10-16T03:47:18;15.10;99.90
6293;DHT22;3179;54.350;10.102;2022-10-16T03:49:47;15.00;99.90
6293;DHT22;3179;54.350;10.102;2022-10-16T03:52:14;15.10;99.90
6293;DHT22;3179;54.350;10.102;2022-10-16T03:54:40;15.00;99.90
6293;DHT22;3179;54.350;10.102;2022-10-16T03:57:08;15.00;99.90
6293;DHT22;3179;54.350;10.102;2022-10-16T03:59:35;15.00;99.90
6293;DHT22;3179;54.350;10.102;2022-10-16T04:02:02;15.00;99.90
6293;DHT22;3179;54.350;10.102;2022-10-16T04:04:29;15.00;99.90
6293;DHT22;3179;54.350;10.102;2022-10-16T04:06:55;15.00;99.90
6293;DHT22;3179;54.350;10.102;2022-10-16T04:09:22;15.00;99.90
6293;DHT22;3179;54.350;10.102;2022-10-16T04:11:49;15.00;99.90
6293;DHT22;3179;54.350;10.102;2022-10-16T04:14:17;14.90;99.90
6293;DHT22;3179;54.350;10.102;2022-10-16T04:16:44;15.00;99.90
6293;DHT22;3179;54.350;10.102;2022-10-16T04:19:11;14.90;99.90
6293;DHT22;3179;54.350;10.102;2022-10-16T04:21:38;14.90;99.90
6293;DHT22;3179;54.350;10.102;2022-10-16T04:24:05;14.90;99.90
6293;DHT22;3179;54.350;10.102;2022-10-16T04:26:32;14.90;99.90
6293;DHT22;3179;54.350;10.102;2022-10-16T04:28:59;14.90;99.90
6293;DHT22;3179;54.350;10.102;2022-10-16T04:31:27;14.90;99.90
6293;DHT22;3179;54.350;10.102;2022-10-16T04:33:54;14.90;99.90
6293;DHT22;3179;54.350;10.102;2022-10-16T04:36:20;14.90;99.90
6293;DHT22;3179;54.350;10.102;2022-10-16T04:38:48;14.90;99.90
6293;DHT22;3179;54.350;10.102;2022-10-16T04:41:14;14.90;99.90
6293;DHT22;3179;54.350;10.102;2022-10-16T04:43:41;14.90;99.90
6293;DHT22;3179;54.350;10.102;2022-10-16T04:46:08;14.80;99.90
6293;DHT22;3179;54.350;10.102;2022-10-16T04:48:37;14.80;99.90
6293;DHT22;3179;54.350;10.102;2022-10-16T04:51:04;14.80;99.90
6293;DHT22;3179;54.350;10.102;2022-10-16T04:53:30;14.90;99.90
6293;DHT22;3179;54.350;10.102;2022-10-16T04:55:57;14.90;99.90
6293;DHT22;3179;54.350;10.102;2022-10-16T04:58:24;14.90;99.90
6293;DHT22;3179;54.350;10.102;2022-10-16T05:00:51;14.90;99.90
6293;DHT22;3179;54.350;10.102;2022-10-16T05:03:17;14.80;99.90
6293;DHT22;3179;54.350;10.102;2022-10-16T05:05:46;14.80;99.90
6293;DHT22;3179;54.350;10.102;2022-10-16T05:08:14;14.80;99.90
6293;DHT22;3179;54.350;10.102;2022-10-16T05:10:41;14.80;99.90
6293;DHT22;3179;54.350;10.102;2022-10-16T05:13:08;14.80;99.90
6293;DHT22;3179;54.350;10.102;2022-10-16T05:15:35;14.80;99.90
6293;DHT22;3179;54.350;10.102;2022-10-16T05:18:02;14.80;99.90
6293;DHT22;3179;54.350;10.102;2022-10-16T05:20:29;14.80;99.90
6293;DHT22;3179;54.350;10.102;2022-10-16T05:22:57;14.80;99.90
6293;DHT22;3179;54.350;10.102;2022-10-16T05:25:24;14.80;99.90
6293;DHT22;3179;54.350;10.102;2022-10-16T05:27:51;14.80;99.90
6293;DHT22;3179;54.350;10.102;2022-10-16T05:30:18;14.80;99.90
6293;DHT22;3179;54.350;10.102;2022-10-16T05:32:47;14.80;99.90
6293;DHT22;3179;54.350;10.102;2022-10-16T05:35:14;14.80;99.90
6293;DHT22;3179;54.350;10.102;2022-10-16T05:37:41;14.80;99.90
6293;DHT22;3179;54.350;10.102;2022-10-16T05:40:10;14.80;99.90
6293;DHT22;3179;54.350;10.102;2022-10-16T05:42:38;14.80;99.90
6293;DHT22;3179;54.350;10.102;2022-10-16T05:45:06;14.80;99.90
6293;DHT22;3179;54.350;10.102;2022-10-16T05:47:33;14.80;99.90
6293;DHT22;3179;54.350;10.102;2022-10-16T05:49:59;14.80;99.90
6293;DHT22;3179;54.350;10.102;2022-10-16T05:52:27;14.80;99.90
6293;DHT22;3179;54.350;10.102;2022-10-16T05:54:53;14.80;99.90
6293;DHT22;3179;54.350;10.102;2022-10-16T05:57:22;14.80;99.90
6293;DHT22;3179;54.350;10.102;2022-10-16T05:59:48;14.80;99.90
6293;DHT22;3179;54.350;10.102;2022-10-16T06:02:15;14.80;99.90
6293;DHT22;3179;54.350;10.102;2022-10-16T06:04:42;14.80;99.90
6293;DHT22;3179;54.350;10.102;2022-10-16T06:07:09;14.80;99.90
6293;DHT22;3179;54.350;10.102;2022-10-16T06:09:36;14.80;99.90
6293;DHT22;3179;54.350;10.102;2022-10-16T06:12:03;14.80;99.90
6293;DHT22;3179;54.350;10.102;2022-10-16T06:14:31;14.80;99.90
6293;DHT22;3179;54.350;10.102;2022-10-16T06:16:59;14.80;99.90
6293;DHT22;3179;54.350;10.102;2022-10-16T06:19:25;14.80;99.90
6293;DHT22;3179;54.350;10.102;2022-10-16T06:21:52;14.80;99.90
6293;DHT22;3179;54.350;10.102;2022-10-16T06:24:19;14.80;99.90
6293;DHT22;3179;54.350;10.102;2022-10-16T06:26:46;14.80;99.90
6293;DHT22;3179;54.350;10.102;2022-10-16T06:29:12;14.90;99.90
6293;DHT22;3179;54.350;10.102;2022-10-16T06:31:40;14.80;99.90
6293;DHT22;3179;54.350;10.102;2022-10-16T06:34:09;14.90;99.90
6293;DHT22;3179;54.350;10.102;2022-10-16T06:36:37;14.80;99.90
6293;DHT22;3179;54.350;10.102;2022-10-16T06:39:04;14.80;99.90
6293;DHT22;3179;54.350;10.102;2022-10-16T06:41:33;14.80;99.90
6293;DHT22;3179;54.350;10.102;2022-10-16T06:44:00;14.80;99.90
6293;DHT22;3179;54.350;10.102;2022-10-16T06:46:27;14.90;99.90
6293;DHT22;3179;54.350;10.102;2022-10-16T06:48:55;14.90;99.90
6293;DHT22;3179;54.350;10.102;2022-10-16T06:51:23;14.90;99.90
6293;DHT22;3179;54.350;10.102;2022-10-16T06:53:51;14.90;99.90
6293;DHT22;3179;54.350;10.102;2022-10-16T06:56:20;14.90;99.90
6293;DHT22;3179;54.350;10.102;2022-10-16T06:58:47;14.90;99.90
6293;DHT22;3179;54.350;10.102;2022-10-16T07:01:16;14.90;99.90
6293;DHT22;3179;54.350;10.102;2022-10-16T07:03:44;14.90;99.90
6293;DHT22;3179;54.350;10.102;2022-10-16T07:06:13;14.90;99.90
6293;DHT22;3179;54.350;10.102;2022-10-16T07:08:42;15.00;99.90
6293;DHT22;3179;54.350;10.102;2022-10-16T07:11:11;15.00;99.90
6293;DHT22;3179;54.350;10.102;2022-10-16T07:13:40;15.00;99.90
6293;DHT22;3179;54.350;10.102;2022-10-16T07:16:08;15.00;99.90
6293;DHT22;3179;54.350;10.102;2022-10-16T07:18:36;15.00;99.90
6293;DHT22;3179;54.350;10.102;2022-10-16T07:21:05;15.00;99.90
6293;DHT22;3179;54.350;10.102;2022-10-16T07:23:33;15.00;99.90
6293;DHT22;3179;54.350;10.102;2022-10-16T07:26:00;15.00;99.90
6293;DHT22;3179;54.350;10.102;2022-10-16T07:28:28;15.00;99.90
6293;DHT22;3179;54.350;10.102;2022-10-16T07:30:54;15.00;99.90
6293;DHT22;3179;54.350;10.102;2022-10-16T07:33:21;15.00;99.90
6293;DHT22;3179;54.350;10.102;2022-10-16T07:35:49;15.00;99.90
6293;DHT22;3179;54.350;10.102;2022-10-16T07:38:16;15.00;99.90
6293;DHT22;3179;54.350;10.102;2022-10-16T07:40:45;15.00;99.90
6293;DHT22;3179;54.350;10.102;2022-10-16T07:43:12;15.00;99.90
6293;DHT22;3179;54.350;10.102;2022-10-16T07:45:46;15.00;99.90
6293;DHT22;3179;54.350;10.102;2022-10-16T07:48:14;15.00;99.90
6293;DHT22;3179;54.350;10.102;2022-10-16T07:50:41;15.00;99.90
6293;DHT22;3179;54.350;10.102;2022-10-16T07:53:08;15.00;99.90
6293;DHT22;3179;54.350;10.102;2022-10-16T07:55:35;15.00;99.90
6293;DHT22;3179;54.350;10.102;2022-10-16T07:58:03;15.00;99.90
6293;DHT22;3179;54.350;10.102;2022-10-16T08:00:31;15.10;99.90
6293;DHT22;3179;54.350;10.102;2022-10-16T08:02:58;15.10;99.90
6293;DHT22;3179;54.350;10.102;2022-10-16T08:05:25;15.10;99.90
6293;DHT22;3179;54.350;10.102;2022-10-16T08:07:52;15.10;99.90
6293;DHT22;3179;54.350;10.102;2022-10-16T08:10:20;15.10;99.90
6293;DHT22;3179;54.350;10.102;2022-10-16T08:12:47;15.10;99.90
6293;DHT22;3179;54.350;10.102;2022-10-16T08:15:16;15.10;99.90
6293;DHT22;3179;54.350;10.102;2022-10-16T08:17:43;15.10;99.90
6293;DHT22;3179;54.350;10.102;2022-10-16T08:20:10;15.10;99.90
6293;DHT22;3179;54.350;10.102;2022-10-16T08:22:37;15.20;99.90
6293;DHT22;3179;54.350;10.102;2022-10-16T08:25:05;15.20;99.90
6293;DHT22;3179;54.350;10.102;2022-10-16T08:27:32;15.20;99.90
6293;DHT22;3179;54.350;10.102;2022-10-16T08:29:58;15.30;99.90
6293;DHT22;3179;54.350;10.102;2022-10-16T08:32:27;15.30;99.90
6293;DHT22;3179;54.350;10.102;2022-10-16T08:34:53;15.30;99.90
6293;DHT22;3179;54.350;10.102;2022-10-16T08:37:20;15.40;99.90
6293;DHT22;3179;54.350;10.102;2022-10-16T08:39:47;15.40;99.90
6293;DHT22;3179;54.350;10.102;2022-10-16T08:42:30;15.40;99.90
6293;DHT22;3179;54.350;10.102;2022-10-16T08:45:20;15.40;99.90
6293;DHT22;3179;54.350;10.102;2022-10-16T08:47:57;15.40;99.90
6293;DHT22;3179;54.350;10.102;2022-10-16T08:50:28;15.50;99.90
6293;DHT22;3179;54.350;10.102;2022-10-16T08:52:56;15.50;99.90
6293;DHT22;3179;54.350;10.102;2022-10-16T08:55:30;15.60;99.90
6293;DHT22;3179;54.350;10.102;2022-10-16T08:57:59;15.60;99.90
6293;DHT22;3179;54.350;10.102;2022-10-16T09:00:26;15.70;99.90
6293;DHT22;3179;54.350;10.102;2022-10-16T09:03:03;15.70;99.90
6293;DHT22;3179;54.350;10.102;2022-10-16T09:05:54;15.70;99.90
6293;DHT22;3179;54.350;10.102;2022-10-16T09:08:29;15.80;99.90
6293;DHT22;3179;54.350;10.102;2022-10-16T09:10:59;15.80;99.90
6293;DHT22;3179;54.350;10.102;2022-10-16T09:13:36;15.80;99.90
6293;DHT22;3179;54.350;10.102;2022-10-16T09:16:15;15.80;99.90
6293;DHT22;3179;54.350;10.102;2022-10-16T09:18:50;15.90;99.90
6293;DHT22;3179;54.350;10.102;2022-10-16T09:21:20;15.90;99.90
6293;DHT22;3179;54.350;10.102;2022-10-16T09:23:48;16.00;99.90
6293;DHT22;3179;54.350;10.102;2022-10-16T09:26:16;16.10;99.90
6293;DHT22;3179;54.350;10.102;2022-10-16T09:28:45;16.20;99.90
6293;DHT22;3179;54.350;10.102;2022-10-16T09:31:19;16.20;99.90
6293;DHT22;3179;54.350;10.102;2022-10-16T09:33:51;16.30;99.90
6293;DHT22;3179;54.350;10.102;2022-10-16T09:36:20;16.30;99.90
6293;DHT22;3179;54.350;10.102;2022-10-16T09:38:47;16.40;99.90
6293;DHT22;3179;54.350;10.102;2022-10-16T09:41:17;16.40;99.90
6293;DHT22;3179;54.350;10.102;2022-10-16T09:43:52;16.50;99.90
6293;DHT22;3179;54.350;10.102;2022-10-16T09:46:25;16.50;99.90
6293;DHT22;3179;54.350;10.102;2022-10-16T09:48:57;16.60;99.90
6293;DHT22;3179;54.350;10.102;2022-10-16T09:51:25;16.60;99.90
6293;DHT22;3179;54.350;10.102;2022-10-16T09:53:55;16.60;99.90
6293;DHT22;3179;54.350;10.102;2022-10-16T09:56:24;16.70;99.90
6293;DHT22;3179;54.350;10.102;2022-10-16T09:58:52;16.70;99.90
6293;DHT22;3179;54.350;10.102;2022-10-16T10:01:21;16.60;99.90
6293;DHT22;3179;54.350;10.102;2022-10-16T10:03:50;16.60;99.90
6293;DHT22;3179;54.350;10.102;2022-10-16T10:06:23;16.60;99.90
6293;DHT22;3179;54.350;10.102;2022-10-16T10:08:59;16.60;99.90
6293;DHT22;3179;54.350;10.102;2022-10-16T10:11:43;16.60;99.90
6293;DHT22;3179;54.350;10.102;2022-10-16T10:14:26;16.60;99.90
6293;DHT22;3179;54.350;10.102;2022-10-16T10:17:08;16.70;99.90
6293;DHT22;3179;54.350;10.102;2022-10-16T10:19:38;16.80;99.90
6293;DHT22;3179;54.350;10.102;2022-10-16T10:22:26;16.80;99.90
6293;DHT22;3179;54.350;10.102;2022-10-16T10:25:12;16.90;99.90
6293;DHT22;3179;54.350;10.102;2022-10-16T10:27:48;16.80;99.90
6293;DHT22;3179;54.350;10.102;2022-10-16T10:30:20;16.80;99.90
6293;DHT22;3179;54.350;10.102;2022-10-16T10:32:56;16.90;99.90
6293;DHT22;3179;54.350;10.102;2022-10-16T10:35:31;17.00;99.90
6293;DHT22;3179;54.350;10.102;2022-10-16T10:38:13;17.00;99.90
6293;DHT22;3179;54.350;10.102;2022-10-16T10:40:49;17.00;99.90
6293;DHT22;3179;54.350;10.102;2022-10-16T10:43:30;16.90;99.90
6293;DHT22;3179;54.350;10.102;2022-10-16T10:46:09;16.90;99.90
6293;DHT22;3179;54.350;10.102;2022-10-16T10:48:59;16.90;99.90
6293;DHT22;3179;54.350;10.102;2022-10-16T10:51:34;16.90;99.90
6293;DHT22;3179;54.350;10.102;2022-10-16T10:54:13;17.00;99.90
6293;DHT22;3179;54.350;10.102;2022-10-16T10:56:48;17.10;99.90
6293;DHT22;3179;54.350;10.102;2022-10-16T10:59:35;17.20;99.90
6293;DHT22;3179;54.350;10.102;2022-10-16T11:02:13;17.30;99.90
6293;DHT22;3179;54.350;10.102;2022-10-16T11:05:06;17.40;99.90
6293;DHT22;3179;54.350;10.102;2022-10-16T11:07:39;17.50;99.90
6293;DHT22;3179;54.350;10.102;2022-10-16T11:10:15;17.60;99.90
6293;DHT22;3179;54.350;10.102;2022-10-16T11:12:47;17.70;99.90
6293;DHT22;3179;54.350;10.102;2022-10-16T11:15:19;17.70;99.90
6293;DHT22;3179;54.350;10.102;2022-10-16T11:17:51;17.70;99.90
6293;DHT22;3179;54.350;10.102;2022-10-16T11:20:21;17.70;99.90
6293;DHT22;3179;54.350;10.102;2022-10-16T11:22:52;17.60;99.90
6293;DHT22;3179;54.350;10.102;2022-10-16T11:25:26;17.50;99.90
6293;DHT22;3179;54.350;10.102;2022-10-16T11:27:57;17.50;99.90
6293;DHT22;3179;54.350;10.102;2022-10-16T11:30:27;17.50;99.90
6293;DHT22;3179;54.350;10.102;2022-10-16T11:33:04;17.50;99.90
6293;DHT22;3179;54.350;10.102;2022-10-16T11:35:43;17.50;99.90
6293;DHT22;3179;54.350;10.102;2022-10-16T11:38:15;17.60;99.90
6293;DHT22;3179;54.350;10.102;2022-10-16T11:40:48;17.70;99.90
6293;DHT22;3179;54.350;10.102;2022-10-16T11:43:21;17.70;99.90
6293;DHT22;3179;54.350;10.102;2022-10-16T11:45:53;17.70;99.90
6293;DHT22;3179;54.350;10.102;2022-10-16T11:48:26;17.70;99.90
6293;DHT22;3179;54.350;10.102;2022-10-16T11:50:57;17.70;99.90
6293;DHT22;3179;54.350;10.102;2022-10-16T11:53:35;17.70;99.90
6293;DHT22;3179;54.350;10.102;2022-10-16T11:56:06;17.70;99.90
6293;DHT22;3179;54.350;10.102;2022-10-16T11:58:39;17.70;99.90
6293;DHT22;3179;54.350;10.102;2022-10-16T12:01:17;17.80;99.90
6293;DHT22;3179;54.350;10.102;2022-10-16T12:03:48;17.70;99.90
6293;DHT22;3179;54.350;10.102;2022-10-16T12:06:30;17.70;99.90
6293;DHT22;3179;54.350;10.102;2022-10-16T12:08:59;17.70;99.90
6293;DHT22;3179;54.350;10.102;2022-10-16T12:11:36;17.60;99.90
6293;DHT22;3179;54.350;10.102;2022-10-16T12:14:18;17.60;99.90
6293;DHT22;3179;54.350;10.102;2022-10-16T12:16:54;17.50;99.90
6293;DHT22;3179;54.350;10.102;2022-10-16T12:19:22;17.50;99.90
6293;DHT22;3179;54.350;10.102;2022-10-16T12:21:51;17.50;99.90
6293;DHT22;3179;54.350;10.102;2022-10-16T12:24:25;17.60;99.90
6293;DHT22;3179;54.350;10.102;2022-10-16T12:26:55;17.70;99.90
6293;DHT22;3179;54.350;10.102;2022-10-16T12:29:31;17.70;99.90
6293;DHT22;3179;54.350;10.102;2022-10-16T12:31:59;17.70;99.90
6293;DHT22;3179;54.350;10.102;2022-10-16T12:34:29;17.70;99.90
6293;DHT22;3179;54.350;10.102;2022-10-16T12:37:08;17.80;99.90
6293;DHT22;3179;54.350;10.102;2022-10-16T12:39:35;17.80;99.90
6293;DHT22;3179;54.350;10.102;2022-10-16T12:42:19;17.80;99.90
6293;DHT22;3179;54.350;10.102;2022-10-16T12:44:47;17.80;99.90
6293;DHT22;3179;54.350;10.102;2022-10-16T12:47:21;17.70;99.90
6293;DHT22;3179;54.350;10.102;2022-10-16T12:49:50;17.70;99.90
6293;DHT22;3179;54.350;10.102;2022-10-16T12:52:26;17.60;99.90
6293;DHT22;3179;54.350;10.102;2022-10-16T12:54:56;17.50;99.90
6293;DHT22;3179;54.350;10.102;2022-10-16T12:57:39;17.50;99.90
6293;DHT22;3179;54.350;10.102;2022-10-16T13:00:16;17.50;99.90
6293;DHT22;3179;54.350;10.102;2022-10-16T13:03:22;17.50;99.90
6293;DHT22;3179;54.350;10.102;2022-10-16T13:06:02;17.50;99.90
6293;DHT22;3179;54.350;10.102;2022-10-16T13:08:43;17.60;99.90
6293;DHT22;3179;54.350;10.102;2022-10-16T13:11:21;17.60;99.90
6293;DHT22;3179;54.350;10.102;2022-10-16T13:14:21;17.60;99.90
6293;DHT22;3179;54.350;10.102;2022-10-16T13:16:57;17.70;99.90
6293;DHT22;3179;54.350;10.102;2022-10-16T13:19:32;17.70;99.90
6293;DHT22;3179;54.350;10.102;2022-10-16T13:22:05;17.70;99.90
6293;DHT22;3179;54.350;10.102;2022-10-16T13:24:56;17.70;99.90
6293;DHT22;3179;54.350;10.102;2022-10-16T13:27:36;17.80;99.90
6293;DHT22;3179;54.350;10.102;2022-10-16T13:30:12;17.80;99.90
6293;DHT22;3179;54.350;10.102;2022-10-16T13:32:45;17.80;99.90
6293;DHT22;3179;54.350;10.102;2022-10-16T13:35:47;17.80;99.90
6293;DHT22;3179;54.350;10.102;2022-10-16T13:48:10;17.90;99.90
6293;DHT22;3179;54.350;10.102;2022-10-16T13:50:38;17.80;99.90
6293;DHT22;3179;54.350;10.102;2022-10-16T13:53:06;17.90;99.90
6293;DHT22;3179;54.350;10.102;2022-10-16T13:55:34;17.90;99.90
6293;DHT22;3179;54.350;10.102;2022-10-16T13:58:05;17.90;99.90
6293;DHT22;3179;54.350;10.102;2022-10-16T14:00:33;17.90;99.90
6293;DHT22;3179;54.350;10.102;2022-10-16T14:03:04;17.80;99.90
6293;DHT22;3179;54.350;10.102;2022-10-16T14:05:34;17.80;99.90
6293;DHT22;3179;54.350;10.102;2022-10-16T14:08:01;17.80;99.90
6293;DHT22;3179;54.350;10.102;2022-10-16T14:10:30;17.80;99.90
6293;DHT22;3179;54.350;10.102;2022-10-16T14:12:59;17.80;99.90
6293;DHT22;3179;54.350;10.102;2022-10-16T14:15:27;17.80;99.90
6293;DHT22;3179;54.350;10.102;2022-10-16T14:17:55;17.70;99.90
6293;DHT22;3179;54.350;10.102;2022-10-16T14:20:27;17.70;99.90
6293;DHT22;3179;54.350;10.102;2022-10-16T14:23:20;17.70;99.90
6293;DHT22;3179;54.350;10.102;2022-10-16T14:25:48;17.70;99.90
6293;DHT22;3179;54.350;10.102;2022-10-16T14:28:17;17.70;99.90
6293;DHT22;3179;54.350;10.102;2022-10-16T14:30:51;17.60;99.90
6293;DHT22;3179;54.350;10.102;2022-10-16T14:33:22;17.60;99.90
6293;DHT22;3179;54.350;10.102;2022-10-16T14:36:03;17.60;99.90
6293;DHT22;3179;54.350;10.102;2022-10-16T14:38:33;17.60;99.90
6293;DHT22;3179;54.350;10.102;2022-10-16T14:41:01;17.60;99.90
6293;DHT22;3179;54.350;10.102;2022-10-16T14:43:33;17.60;99.90
6293;DHT22;3179;54.350;10.102;2022-10-16T14:46:01;17.60;99.90
6293;DHT22;3179;54.350;10.102;2022-10-16T14:48:29;17.60;99.90
6293;DHT22;3179;54.350;10.102;2022-10-16T14:50:56;17.50;99.90
6293;DHT22;3179;54.350;10.102;2022-10-16T14:53:24;17.50;99.90
6293;DHT22;3179;54.350;10.102;2022-10-16T14:55:53;17.50;99.90
6293;DHT22;3179;54.350;10.102;2022-10-16T14:58:21;17.50;99.90
6293;DHT22;3179;54.350;10.102;2022-10-16T15:00:50;17.50;99.90
6293;DHT22;3179;54.350;10.102;2022-10-16T15:03:17;17.40;99.90
6293;DHT22;3179;54.350;10.102;2022-10-16T15:05:43;17.50;99.90
6293;DHT22;3179;54.350;10.102;2022-10-16T15:08:10;17.40;99.90
6293;DHT22;3179;54.350;10.102;2022-10-16T15:10:40;17.40;99.90
6293;DHT22;3179;54.350;10.102;2022-10-16T15:13:12;17.40;99.90
6293;DHT22;3179;54.350;10.102;2022-10-16T15:15:42;17.40;99.90
6293;DHT22;3179;54.350;10.102;2022-10-16T15:18:10;17.30;99.90
6293;DHT22;3179;54.350;10.102;2022-10-16T15:20:38;17.30;99.90
6293;DHT22;3179;54.350;10.102;2022-10-16T15:23:09;17.30;99.90
6293;DHT22;3179;54.350;10.102;2022-10-16T15:25:39;17.30;99.90
6293;DHT22;3179;54.350;10.102;2022-10-16T15:28:10;17.30;99.90
6293;DHT22;3179;54.350;10.102;2022-10-16T15:30:37;17.20;99.90
6293;DHT22;3179;54.350;10.102;2022-10-16T15:33:09;17.20;99.90
6293;DHT22;3179;54.350;10.102;2022-10-16T15:35:37;17.20;99.90
6293;DHT22;3179;54.350;10.102;2022-10-16T15:38:04;17.20;99.90
6293;DHT22;3179;54.350;10.102;2022-10-16T15:40:31;17.10;99.90
6293;DHT22;3179;54.350;10.102;2022-10-16T15:42:57;17.10;99.90
6293;DHT22;3179;54.350;10.102;2022-10-16T15:45:25;17.10;99.90
6293;DHT22;3179;54.350;10.102;2022-10-16T15:47:52;17.10;99.90
6293;DHT22;3179;54.350;10.102;2022-10-16T15:50:19;17.10;99.90
6293;DHT22;3179;54.350;10.102;2022-10-16T15:52:45;17.00;99.90
6293;DHT22;3179;54.350;10.102;2022-10-16T15:55:14;17.00;99.90
6293;DHT22;3179;54.350;10.102;2022-10-16T15:57:41;17.00;99.90
6293;DHT22;3179;54.350;10.102;2022-10-16T16:00:11;17.00;99.90
6293;DHT22;3179;54.350;10.102;2022-10-16T16:02:39;16.90;99.90
6293;DHT22;3179;54.350;10.102;2022-10-16T16:05:08;16.90;99.90
6293;DHT22;3179;54.350;10.102;2022-10-16T16:07:36;16.90;99.90
6293;DHT22;3179;54.350;10.102;2022-10-16T16:10:05;16.80;99.90
6293;DHT22;3179;54.350;10.102;2022-10-16T16:12:33;16.80;99.90
6293;DHT22;3179;54.350;10.102;2022-10-16T16:15:00;16.80;99.90
6293;DHT22;3179;54.350;10.102;2022-10-16T16:17:27;16.70;99.90